Antioch, Texas
Current Conditions -  °F | °C
As of 8:15 PM on Thursday 18 Dec 2014 (Local Time) from KOCH Reporting Station
Overcast Overcast  
Wind Chill: 54°   Ceiling: 2200
Heat Index: 54°   Visibility: 10mi
Dew Point: 48°   Wind: 3mph
Humidity: 82%   Direction: 80°E
Pressure: 30.13"   Gusts: NA
Location:  31.8636°N, 94.3909°W
Report Text: KOCH 190215Z AUTO 08003KT 10SM OVC022 12/09 A3013 RMK AO1
Loading
Personal Weather Stations






























Interactive Weather Map New forecast layout! Learn more

10-Day Weather Forecast

Advertisements
Track Severe Weather on mobile